createdAt,value
2018-06-10T00:01:01.699Z,19.00
2018-06-10T00:03:29.946Z,18.70
2018-06-10T00:05:58.184Z,18.70
2018-06-10T00:08:26.399Z,18.80
2018-06-10T00:10:54.663Z,18.90
2018-06-10T00:13:22.871Z,18.80
2018-06-10T00:15:51.125Z,18.70
2018-06-10T00:18:19.370Z,18.90
2018-06-10T00:20:47.553Z,18.90
2018-06-10T00:23:15.773Z,18.90
2018-06-10T00:25:43.965Z,18.90
2018-06-10T00:28:12.322Z,18.90
2018-06-10T00:30:40.565Z,18.80
2018-06-10T00:33:08.769Z,18.80
2018-06-10T00:35:36.998Z,18.90
2018-06-10T00:38:05.258Z,18.90
2018-06-10T00:43:01.509Z,19.00
2018-06-10T00:45:29.810Z,19.10
2018-06-10T00:47:58.048Z,19.10
2018-06-10T00:50:26.303Z,19.20
2018-06-10T00:52:54.535Z,19.20
2018-06-10T00:55:22.775Z,19.20
2018-06-10T00:57:51.001Z,19.20
2018-06-10T01:00:19.265Z,19.20
2018-06-10T01:02:47.486Z,19.20
2018-06-10T01:05:15.727Z,19.20
2018-06-10T01:07:43.954Z,19.20
2018-06-10T01:10:12.172Z,19.10
2018-06-10T01:12:40.398Z,19.00
2018-06-10T01:15:08.602Z,18.90
2018-06-10T01:17:36.817Z,18.90
2018-06-10T01:20:05.054Z,19.00
2018-06-10T01:22:33.264Z,19.00
2018-06-10T01:25:01.493Z,18.80
2018-06-10T01:27:29.682Z,18.80
2018-06-10T01:29:57.942Z,18.90
2018-06-10T01:32:26.157Z,18.80
2018-06-10T01:34:54.345Z,18.70
2018-06-10T01:37:22.557Z,18.60
2018-06-10T01:39:50.760Z,18.50
2018-06-10T01:42:19.005Z,18.40
2018-06-10T01:44:47.226Z,18.30
2018-06-10T01:47:15.479Z,18.40
2018-06-10T01:49:43.800Z,18.30
2018-06-10T01:52:12.042Z,18.30
2018-06-10T01:54:40.277Z,18.20
2018-06-10T01:57:08.529Z,18.30
2018-06-10T01:59:36.722Z,18.30
2018-06-10T02:02:04.973Z,18.40
2018-06-10T02:04:33.221Z,18.40
2018-06-10T02:07:01.473Z,18.40
2018-06-10T02:09:29.733Z,18.30
2018-06-10T02:11:57.939Z,18.30
2018-06-10T02:14:26.175Z,18.30
2018-06-10T02:16:54.416Z,18.20
2018-06-10T02:19:22.641Z,18.20
2018-06-10T02:21:50.853Z,18.20
2018-06-10T02:24:19.041Z,18.20
2018-06-10T02:26:47.273Z,18.10
2018-06-10T02:29:15.458Z,18.10
2018-06-10T02:31:43.721Z,18.20
2018-06-10T02:34:11.974Z,18.00
2018-06-10T02:36:40.166Z,18.00
2018-06-10T02:39:08.408Z,18.00
2018-06-10T02:41:36.610Z,18.00
2018-06-10T02:44:11.394Z,17.90
2018-06-10T02:46:39.625Z,18.00
2018-06-10T02:49:07.818Z,17.90
2018-06-10T02:51:36.118Z,17.80
2018-06-10T02:54:04.442Z,17.80
2018-06-10T02:56:32.690Z,17.80
2018-06-10T02:59:00.945Z,17.90
2018-06-10T03:03:36.733Z,18.10
2018-06-10T03:06:05.258Z,18.00
2018-06-10T03:08:33.498Z,18.00
2018-06-10T03:11:01.742Z,18.00
2018-06-10T03:13:29.956Z,18.00
2018-06-10T03:15:58.235Z,18.10
2018-06-10T03:18:26.458Z,18.10
2018-06-10T03:23:22.689Z,17.90
2018-06-10T03:25:50.905Z,17.80
2018-06-10T03:28:19.144Z,17.70
2018-06-10T03:30:47.337Z,17.60
2018-06-10T03:33:15.577Z,17.60
2018-06-10T03:35:43.820Z,17.60
2018-06-10T03:38:12.035Z,17.70
2018-06-10T03:40:40.262Z,17.60
2018-06-10T03:43:08.469Z,17.70
2018-06-10T03:45:36.710Z,17.70
2018-06-10T03:48:04.974Z,17.60
2018-06-10T03:50:33.169Z,17.60
2018-06-10T03:53:01.447Z,17.70
2018-06-10T03:55:29.637Z,17.70
2018-06-10T03:57:57.877Z,17.70
2018-06-10T04:00:26.123Z,17.60
2018-06-10T04:02:54.344Z,17.60
2018-06-10T04:05:22.583Z,17.50
2018-06-10T04:07:50.782Z,17.60
2018-06-10T04:10:19.009Z,17.60
2018-06-10T04:12:47.252Z,17.70
2018-06-10T04:15:15.473Z,17.60
2018-06-10T04:17:43.711Z,17.70
2018-06-10T04:20:11.918Z,17.80
2018-06-10T04:22:40.175Z,17.70
2018-06-10T04:25:08.411Z,17.70
2018-06-10T04:27:36.593Z,17.80
2018-06-10T04:30:04.837Z,17.80
2018-06-10T04:32:33.044Z,17.90
2018-06-10T04:35:01.269Z,18.00
2018-06-10T04:37:29.534Z,18.10
2018-06-10T04:39:57.742Z,18.00
2018-06-10T04:42:25.983Z,18.10
2018-06-10T04:44:54.194Z,18.10
2018-06-10T04:47:22.509Z,18.10
2018-06-10T04:49:50.740Z,18.20
2018-06-10T04:52:18.938Z,18.10
2018-06-10T04:54:47.198Z,18.10
2018-06-10T04:57:15.393Z,17.90
2018-06-10T04:59:43.633Z,17.90
2018-06-10T05:02:11.870Z,18.10
2018-06-10T05:04:40.054Z,18.20
2018-06-10T05:07:08.297Z,18.30
2018-06-10T05:09:36.502Z,18.50
2018-06-10T05:12:04.758Z,18.50
2018-06-10T05:14:33.005Z,18.60
2018-06-10T05:17:01.186Z,18.70
2018-06-10T05:19:29.422Z,18.80
2018-06-10T05:21:57.625Z,18.80
2018-06-10T05:24:25.832Z,18.90
2018-06-10T05:26:54.065Z,19.00
2018-06-10T05:29:22.290Z,19.20
2018-06-10T05:31:50.523Z,19.30
2018-06-10T05:34:18.720Z,19.50
2018-06-10T05:39:14.920Z,20.00
2018-06-10T05:41:43.102Z,20.20
2018-06-10T05:44:11.326Z,20.40
2018-06-10T05:46:39.523Z,20.60
2018-06-10T05:49:07.777Z,20.70
2018-06-10T05:51:36.018Z,21.00
2018-06-10T05:54:04.262Z,21.00
2018-06-10T05:56:32.522Z,21.00
2018-06-10T05:59:00.745Z,21.20
2018-06-10T06:01:29.039Z,21.10
2018-06-10T06:03:57.407Z,21.20
2018-06-10T06:06:25.667Z,21.40
2018-06-10T06:08:53.953Z,21.40
2018-06-10T06:11:22.180Z,21.70
2018-06-10T06:13:50.499Z,21.60
2018-06-10T06:16:18.788Z,21.80
2018-06-10T06:18:47.072Z,22.10
2018-06-10T06:21:15.398Z,22.10
2018-06-10T06:23:43.676Z,22.40
2018-06-10T06:26:11.962Z,22.60
2018-06-10T06:28:40.186Z,22.80
2018-06-10T06:31:08.605Z,23.10
2018-06-10T06:33:36.869Z,23.40
2018-06-10T06:36:05.126Z,23.50
2018-06-10T06:38:33.362Z,23.60
2018-06-10T06:41:01.570Z,23.80
2018-06-10T06:43:29.848Z,24.00
2018-06-10T06:45:58.151Z,24.30
2018-06-10T06:48:26.387Z,24.10
2018-06-10T06:50:54.641Z,24.00
2018-06-10T06:53:22.897Z,24.00
2018-06-10T06:55:51.151Z,24.40
2018-06-10T06:58:19.374Z,24.70
2018-06-10T07:00:47.578Z,24.80
2018-06-10T07:03:15.828Z,24.70
2018-06-10T07:05:44.050Z,24.50
2018-06-10T07:08:12.313Z,24.40
2018-06-10T07:13:08.554Z,24.40
2018-06-10T07:15:36.810Z,24.80
2018-06-10T07:18:05.046Z,24.50
2018-06-10T07:20:33.257Z,24.60
2018-06-10T07:23:01.494Z,24.70
2018-06-10T07:25:29.757Z,24.80
2018-06-10T07:27:58.030Z,24.80
2018-06-10T07:30:26.279Z,25.00
2018-06-10T07:32:54.523Z,25.30
2018-06-10T07:35:22.790Z,25.40
2018-06-10T07:37:50.994Z,25.60
2018-06-10T07:40:19.595Z,25.40
2018-06-10T07:42:47.782Z,25.20
2018-06-10T07:45:16.017Z,24.80
2018-06-10T07:47:44.245Z,24.70
2018-06-10T07:50:12.499Z,25.10
2018-06-10T07:52:40.793Z,24.90
2018-06-10T07:57:37.035Z,25.20
2018-06-10T08:00:05.342Z,25.20
2018-06-10T08:02:33.573Z,25.60
2018-06-10T08:05:02.405Z,25.80
2018-06-10T08:07:31.483Z,25.60
2018-06-10T08:10:02.166Z,25.70
2018-06-10T08:12:30.485Z,25.80
2018-06-10T08:14:58.717Z,25.60
2018-06-10T08:17:26.998Z,25.60
2018-06-10T08:19:55.697Z,25.60
2018-06-10T08:22:24.425Z,25.60
2018-06-10T08:24:53.059Z,25.80
2018-06-10T08:27:21.723Z,25.90
2018-06-10T08:29:50.488Z,26.00
2018-06-10T08:32:19.169Z,26.20
2018-06-10T08:34:47.894Z,26.00
2018-06-10T08:37:16.662Z,25.80
2018-06-10T08:39:45.388Z,26.10
2018-06-10T08:42:14.129Z,26.20
2018-06-10T08:44:42.797Z,26.20
2018-06-10T08:47:11.522Z,26.20
2018-06-10T08:49:40.293Z,26.10
2018-06-10T08:52:08.551Z,25.90
2018-06-10T08:54:36.797Z,25.80
2018-06-10T08:57:05.015Z,26.10
2018-06-10T08:59:33.253Z,26.30
2018-06-10T09:02:01.729Z,26.70
2018-06-10T09:04:29.917Z,26.30
2018-06-10T09:06:58.510Z,26.00
2018-06-10T09:09:26.710Z,26.00
2018-06-10T09:11:54.997Z,25.90
2018-06-10T09:14:23.282Z,26.10
2018-06-10T09:16:51.482Z,26.50
2018-06-10T09:19:19.713Z,26.60
2018-06-10T09:21:47.943Z,26.60
2018-06-10T09:24:16.214Z,26.70
2018-06-10T09:26:44.430Z,26.90
2018-06-10T09:29:12.634Z,27.00
2018-06-10T09:31:40.879Z,27.30
2018-06-10T09:34:09.071Z,27.40
2018-06-10T09:36:37.302Z,27.50
2018-06-10T09:39:07.564Z,27.40
2018-06-10T09:41:35.841Z,27.40
2018-06-10T09:44:04.553Z,27.10
2018-06-10T09:46:32.741Z,26.70
2018-06-10T09:49:00.953Z,26.20
2018-06-10T09:51:29.254Z,26.40
2018-06-10T09:53:57.478Z,26.30
2018-06-10T09:56:25.730Z,25.90
2018-06-10T09:58:53.939Z,25.70
2018-06-10T10:01:22.171Z,25.80
2018-06-10T10:03:50.474Z,26.00
2018-06-10T10:06:18.685Z,26.00
2018-06-10T10:08:46.964Z,25.90
2018-06-10T10:11:15.163Z,26.00
2018-06-10T10:16:11.348Z,26.60
2018-06-10T10:18:39.785Z,27.00
2018-06-10T10:21:08.070Z,27.00
2018-06-10T10:23:36.322Z,26.80
2018-06-10T10:26:04.746Z,26.80
2018-06-10T10:28:33.072Z,26.60
2018-06-10T10:31:01.446Z,26.30
2018-06-10T10:33:29.752Z,26.50
2018-06-10T10:35:57.937Z,27.00
2018-06-10T10:38:28.794Z,27.60
2018-06-10T10:40:57.242Z,27.70
2018-06-10T10:43:25.598Z,27.50
2018-06-10T10:45:53.989Z,26.80
2018-06-10T10:48:22.186Z,26.60
2018-06-10T10:50:50.891Z,26.50
2018-06-10T10:53:19.749Z,26.60
2018-06-10T10:55:48.085Z,26.90
2018-06-10T10:58:16.482Z,27.20
2018-06-10T11:00:44.690Z,27.60
2018-06-10T11:03:12.943Z,27.60
2018-06-10T11:05:41.224Z,27.30
2018-06-10T11:08:09.692Z,27.40
2018-06-10T11:10:37.953Z,26.70
2018-06-10T11:13:05.841Z,26.80
2018-06-10T11:15:34.146Z,27.10
2018-06-10T11:18:02.554Z,27.40
2018-06-10T11:20:31.337Z,27.80
2018-06-10T11:23:00.193Z,27.90
2018-06-10T11:25:28.583Z,27.90
2018-06-10T11:27:56.853Z,28.30
2018-06-10T11:30:25.086Z,28.70
2018-06-10T11:35:21.302Z,29.60
2018-06-10T11:37:49.571Z,29.30
2018-06-10T11:40:17.842Z,28.50
2018-06-10T11:42:46.097Z,28.50
2018-06-10T11:45:14.324Z,28.40
2018-06-10T11:47:42.514Z,28.20
2018-06-10T11:50:10.774Z,28.00
2018-06-10T11:52:39.021Z,28.20
2018-06-10T11:55:07.222Z,28.40
2018-06-10T11:57:35.612Z,28.40
2018-06-10T12:00:04.273Z,28.20
2018-06-10T12:02:32.553Z,27.90
2018-06-10T12:05:00.786Z,28.00
2018-06-10T12:07:29.013Z,28.30
2018-06-10T12:09:57.390Z,28.30
2018-06-10T12:12:25.602Z,28.80
2018-06-10T12:14:53.837Z,28.70
2018-06-10T12:17:22.606Z,29.00
2018-06-10T12:19:50.812Z,29.50
2018-06-10T12:22:19.074Z,29.50
2018-06-10T12:24:47.309Z,28.90
2018-06-10T12:27:15.548Z,28.50
2018-06-10T12:29:43.801Z,28.40
2018-06-10T12:32:12.000Z,28.30
2018-06-10T12:34:40.239Z,28.30
2018-06-10T12:37:08.493Z,28.60
2018-06-10T12:39:36.732Z,29.20
2018-06-10T12:42:05.111Z,29.50
2018-06-10T12:44:33.338Z,29.20
2018-06-10T12:47:01.589Z,29.10
2018-06-10T12:49:29.830Z,28.70
2018-06-10T12:51:58.069Z,28.20
2018-06-10T12:54:26.287Z,27.60
2018-06-10T12:56:54.557Z,27.20
2018-06-10T12:59:22.829Z,26.90
2018-06-10T13:01:51.099Z,26.60
2018-06-10T13:04:19.368Z,26.50
2018-06-10T13:06:47.553Z,26.50
2018-06-10T13:09:15.914Z,26.40
2018-06-10T13:11:44.117Z,25.90
2018-06-10T13:14:12.398Z,25.40
2018-06-10T13:16:40.638Z,25.00
2018-06-10T13:19:09.546Z,24.80
2018-06-10T13:21:37.906Z,24.60
2018-06-10T13:24:06.233Z,24.60
2018-06-10T13:26:34.499Z,24.30
2018-06-10T13:29:02.839Z,24.40
2018-06-10T13:31:31.081Z,24.20
2018-06-10T13:33:59.298Z,24.00
2018-06-10T13:36:27.539Z,23.90
2018-06-10T13:38:55.776Z,23.90
2018-06-10T13:41:24.011Z,24.00
2018-06-10T13:43:52.310Z,24.00
2018-06-10T13:46:20.520Z,23.90
2018-06-10T13:51:16.774Z,24.80
2018-06-10T13:53:45.251Z,25.50
2018-06-10T13:56:13.506Z,26.30
2018-06-10T13:58:41.817Z,26.90
2018-06-10T14:01:10.075Z,27.60
2018-06-10T14:03:38.365Z,27.60
2018-06-10T14:06:06.624Z,27.50
2018-06-10T14:08:34.917Z,27.50
2018-06-10T14:11:03.163Z,27.50
2018-06-10T14:13:31.425Z,27.80
2018-06-10T14:15:59.734Z,27.90
2018-06-10T14:18:27.957Z,28.10
2018-06-10T14:20:56.213Z,28.20
2018-06-10T14:23:24.493Z,27.90
2018-06-10T14:25:52.753Z,27.40
2018-06-10T14:28:21.145Z,27.70
2018-06-10T14:30:49.394Z,27.90
2018-06-10T14:33:17.934Z,27.90
2018-06-10T14:35:46.224Z,27.60
2018-06-10T14:38:14.511Z,27.80
2018-06-10T14:40:42.815Z,28.00
2018-06-10T14:43:11.116Z,28.00
2018-06-10T14:45:39.461Z,27.90
2018-06-10T14:48:07.802Z,27.50
2018-06-10T14:50:36.070Z,27.40
2018-06-10T14:53:04.475Z,27.70
2018-06-10T14:55:32.751Z,27.80
2018-06-10T14:58:02.672Z,27.60
2018-06-10T15:00:31.069Z,27.50
2018-06-10T15:02:59.398Z,27.60
2018-06-10T15:05:27.621Z,27.70
2018-06-10T15:07:55.865Z,28.10
2018-06-10T15:10:24.085Z,28.50
2018-06-10T15:12:52.317Z,28.70
2018-06-10T15:15:20.517Z,28.90
2018-06-10T15:17:48.874Z,29.00
2018-06-10T15:20:17.129Z,28.50
2018-06-10T15:22:45.408Z,28.50
2018-06-10T15:27:41.702Z,28.40
2018-06-10T15:30:09.958Z,28.20
2018-06-10T15:32:38.204Z,27.80
2018-06-10T15:35:06.449Z,27.10
2018-06-10T15:37:34.690Z,26.90
2018-06-10T15:40:02.997Z,26.90
2018-06-10T15:42:31.353Z,26.90
2018-06-10T15:44:59.645Z,26.90
2018-06-10T15:47:27.846Z,26.80
2018-06-10T15:49:56.100Z,26.90
2018-06-10T15:52:24.309Z,26.80
2018-06-10T15:54:52.563Z,26.70
2018-06-10T15:57:20.807Z,26.80
2018-06-10T15:59:49.004Z,26.60
2018-06-10T16:02:17.410Z,26.70
2018-06-10T16:04:45.769Z,26.70
2018-06-10T16:07:14.087Z,26.80
2018-06-10T16:09:42.397Z,26.80
2018-06-10T16:12:10.637Z,26.70
2018-06-10T16:14:38.898Z,26.60
2018-06-10T16:17:07.151Z,26.40
2018-06-10T16:19:35.409Z,26.40
2018-06-10T16:22:03.716Z,26.30
2018-06-10T16:24:31.982Z,26.10
2018-06-10T16:27:00.242Z,26.20
2018-06-10T16:29:28.442Z,26.20
2018-06-10T16:31:56.698Z,26.20
2018-06-10T16:34:24.969Z,26.10
2018-06-10T16:36:53.222Z,26.00
2018-06-10T16:39:21.482Z,26.00
2018-06-10T16:41:49.783Z,25.90
2018-06-10T16:44:18.065Z,26.00
2018-06-10T16:46:46.473Z,25.90
2018-06-10T16:49:14.729Z,26.00
2018-06-10T16:51:42.960Z,25.90
2018-06-10T16:54:11.193Z,26.00
2018-06-10T16:56:39.481Z,25.90
2018-06-10T16:59:07.731Z,25.90
2018-06-10T17:01:35.977Z,26.00
2018-06-10T17:04:04.272Z,26.00
2018-06-10T17:06:32.510Z,26.00
2018-06-10T17:09:00.854Z,26.00
2018-06-10T17:11:29.189Z,26.00
2018-06-10T17:13:57.459Z,26.00
2018-06-10T17:16:25.770Z,25.90
2018-06-10T17:18:54.058Z,25.90
2018-06-10T17:21:22.453Z,25.80
2018-06-10T17:23:50.778Z,25.80
2018-06-10T17:26:19.130Z,25.70
2018-06-10T17:28:47.445Z,25.60
2018-06-10T17:31:15.658Z,25.40
2018-06-10T17:33:43.929Z,25.30
2018-06-10T17:36:12.224Z,25.20
2018-06-10T17:38:40.462Z,25.10
2018-06-10T17:41:08.864Z,24.90
2018-06-10T17:43:37.093Z,24.80
2018-06-10T17:46:05.498Z,24.80
2018-06-10T17:48:33.797Z,24.80
2018-06-10T17:51:02.068Z,24.90
2018-06-10T17:53:30.491Z,24.90
2018-06-10T17:55:58.948Z,24.80
2018-06-10T17:58:27.314Z,24.70
2018-06-10T18:00:55.644Z,24.60
2018-06-10T18:03:23.960Z,24.60
2018-06-10T18:05:52.206Z,24.60
2018-06-10T18:08:20.460Z,24.60
2018-06-10T18:10:48.817Z,24.60
2018-06-10T18:13:17.147Z,24.70
2018-06-10T18:15:45.449Z,24.70
2018-06-10T18:18:13.757Z,24.80
2018-06-10T18:20:41.995Z,24.90
2018-06-10T18:23:10.265Z,24.90
2018-06-10T18:25:38.617Z,24.90
2018-06-10T18:28:07.500Z,24.90
2018-06-10T18:30:35.861Z,25.00
2018-06-10T18:33:04.481Z,25.00
2018-06-10T18:35:32.751Z,25.00
2018-06-10T18:38:01.155Z,24.90
2018-06-10T18:40:29.414Z,24.80
2018-06-10T18:42:57.673Z,24.80
2018-06-10T18:45:26.007Z,24.80
2018-06-10T18:47:54.297Z,24.70
2018-06-10T18:50:22.606Z,24.50
2018-06-10T18:52:50.866Z,24.40
2018-06-10T18:55:19.115Z,24.40
2018-06-10T18:57:47.371Z,24.30
2018-06-10T19:00:15.797Z,24.20
2018-06-10T19:02:44.070Z,24.10
2018-06-10T19:05:12.400Z,24.10
2018-06-10T19:07:40.653Z,24.00
2018-06-10T19:10:08.883Z,23.90
2018-06-10T19:12:37.129Z,23.80
2018-06-10T19:15:05.462Z,23.70
2018-06-10T19:17:33.657Z,23.60
2018-06-10T19:20:01.890Z,23.60
2018-06-10T19:22:30.112Z,23.50
2018-06-10T19:24:58.710Z,23.50
2018-06-10T19:27:27.388Z,23.50
2018-06-10T19:29:56.180Z,23.30
2018-06-10T19:32:24.487Z,23.10
2018-06-10T19:34:53.574Z,23.10
2018-06-10T19:37:21.909Z,23.10
2018-06-10T19:39:50.151Z,23.10
2018-06-10T19:42:18.486Z,23.10
2018-06-10T19:44:46.783Z,22.90
2018-06-10T19:47:15.027Z,22.80
2018-06-10T19:49:43.266Z,22.80
2018-06-10T19:52:11.506Z,22.90
2018-06-10T19:54:39.794Z,22.90
2018-06-10T19:57:08.006Z,22.90
2018-06-10T19:59:36.250Z,22.80
2018-06-10T20:02:04.535Z,22.80
2018-06-10T20:04:36.202Z,22.80
2018-06-10T20:07:04.501Z,22.60
2018-06-10T20:09:32.815Z,22.50
2018-06-10T20:12:01.134Z,22.40
2018-06-10T20:14:29.421Z,22.40
2018-06-10T20:16:57.734Z,22.20
2018-06-10T20:19:26.003Z,22.10
2018-06-10T20:21:54.228Z,21.90
2018-06-10T20:24:22.495Z,21.90
2018-06-10T20:26:50.750Z,21.90
2018-06-10T20:29:18.998Z,22.00
2018-06-10T20:31:47.293Z,22.00
2018-06-10T20:34:15.590Z,21.90
2018-06-10T20:36:43.873Z,21.90
2018-06-10T20:39:12.113Z,21.90
2018-06-10T20:41:40.397Z,21.90
2018-06-10T20:44:08.796Z,21.80
2018-06-10T20:46:37.157Z,21.90
2018-06-10T20:49:05.411Z,21.80
2018-06-10T20:51:33.650Z,21.80
2018-06-10T20:54:01.935Z,21.80
2018-06-10T20:56:30.195Z,21.70
2018-06-10T20:58:58.421Z,21.70
2018-06-10T21:01:26.679Z,21.70
2018-06-10T21:03:56.338Z,21.70
2018-06-10T21:06:25.168Z,21.50
2018-06-10T21:08:53.443Z,21.50
2018-06-10T21:11:21.686Z,21.40
2018-06-10T21:13:49.925Z,21.30
2018-06-10T21:16:18.164Z,21.30
2018-06-10T21:18:46.435Z,21.30
2018-06-10T21:21:14.669Z,21.30
2018-06-10T21:23:43.016Z,21.40
2018-06-10T21:26:11.291Z,21.40
2018-06-10T21:28:39.781Z,21.30
2018-06-10T21:31:08.497Z,21.30
2018-06-10T21:33:36.918Z,21.30
2018-06-10T21:36:05.494Z,21.30
2018-06-10T21:38:33.735Z,21.20
2018-06-10T21:41:01.954Z,21.20
2018-06-10T21:43:30.215Z,21.20
2018-06-10T21:45:58.465Z,21.10
2018-06-10T21:48:26.683Z,20.80
2018-06-10T21:50:54.930Z,20.60
2018-06-10T21:53:23.129Z,20.60
2018-06-10T21:55:51.425Z,20.70
2018-06-10T21:58:19.682Z,20.70
2018-06-10T22:00:47.985Z,20.70
2018-06-10T22:03:16.229Z,20.70
2018-06-10T22:05:44.429Z,20.80
2018-06-10T22:08:12.660Z,20.80
2018-06-10T22:10:40.857Z,20.90
2018-06-10T22:13:09.112Z,20.80
2018-06-10T22:15:37.410Z,20.90
2018-06-10T22:18:05.637Z,20.90
2018-06-10T22:22:59.274Z,20.80
2018-06-10T22:25:27.524Z,20.90
2018-06-10T22:27:55.746Z,20.80
2018-06-10T22:30:24.005Z,20.80
2018-06-10T22:32:52.235Z,20.70
2018-06-10T22:35:20.441Z,20.70
2018-06-10T22:37:48.662Z,20.70
2018-06-10T22:40:16.875Z,20.70
2018-06-10T22:42:45.127Z,20.60
2018-06-10T22:45:13.378Z,20.50
2018-06-10T22:47:41.607Z,20.50
2018-06-10T22:50:09.884Z,20.60
2018-06-10T22:52:38.076Z,20.70
2018-06-10T22:55:06.331Z,20.60
2018-06-10T22:57:34.545Z,20.60
2018-06-10T23:00:02.795Z,20.60
2018-06-10T23:02:31.045Z,20.50
2018-06-10T23:04:59.267Z,20.50
2018-06-10T23:07:27.513Z,20.50
2018-06-10T23:09:55.722Z,20.60
2018-06-10T23:12:23.957Z,20.70
2018-06-10T23:14:52.227Z,20.70
2018-06-10T23:17:20.437Z,20.70
2018-06-10T23:19:48.698Z,20.70
2018-06-10T23:22:16.906Z,20.50
2018-06-10T23:24:45.145Z,20.40
2018-06-10T23:27:13.457Z,20.40
2018-06-10T23:29:41.661Z,20.40
2018-06-10T23:32:09.909Z,20.40
2018-06-10T23:34:38.112Z,20.30
2018-06-10T23:37:06.358Z,20.20
2018-06-10T23:39:34.605Z,20.20
2018-06-10T23:42:02.799Z,20.20
2018-06-10T23:44:31.036Z,20.10
2018-06-10T23:46:59.216Z,20.20
2018-06-10T23:49:27.467Z,20.20
2018-06-10T23:51:55.726Z,20.20
2018-06-10T23:54:23.930Z,20.20
2018-06-10T23:56:52.186Z,20.20
2018-06-10T23:59:20.375Z,20.20
